Terminal Aerodrome Forecast
Issued by NWS

Home | Current Version | Previous Version | Text Only | Print | Product List | Glossary On
Versions: 1 2 3 4 5 6 7 8 9 10 11 12 13 14 15 16 17 18 19 20 21 22 23 24 25 26 27 28 29 30
000
FTUS45 KBYZ 261736
TAFLVM
TAF
KLVM 261736Z 2618/2718 27008KT P6SM FEW120
     FM262100 28010KT P6SM VCTS BKN090CB
     FM270200 26010KT P6SM VCTS SCT040CB BKN080
     FM270900 07005KT 6SM SHRA VCTS SCT025CB BKN040=

USA.gov is the U.S. government's official web portal to all federal, state and local government web resources and services.